Terminal Aerodrome Forecast
Issued by NWS Upton, NY

Home | Current Version | Previous Version | Text Only | Print | Product List | Glossary On
Versions: 1 2 3 4 5 6 7 8 9 10 11 12 13 14 15 16 17 18 19 20 21 22 23 24 25 26 27 28 29 30
000
FTUS41 KOKX 280830 AAA
TAFBDR
TAF AMD
KBDR 280830Z 2809/2906 VRB04KT P6SM SCT250
     FM281000 05006KT P6SM SCT020 BKN250
      TEMPO 2811/2814 BKN020
     FM281400 05013G20KT P6SM BKN020
     FM281700 05014G22KT P6SM OVC015=

USA.gov is the U.S. government's official web portal to all federal, state and local government web resources and services.